sensor_id;sensor_type;location;lat;lon;timestamp;temperature;humidity
19928;DHT22;10126;50.876;4.470;2023-09-19T00:00:36;15.90;99.90
19928;DHT22;10126;50.876;4.470;2023-09-19T00:02:36;16.00;99.90
19928;DHT22;10126;50.876;4.470;2023-09-19T00:04:37;16.00;99.90
19928;DHT22;10126;50.876;4.470;2023-09-19T00:06:40;15.80;99.90
19928;DHT22;10126;50.876;4.470;2023-09-19T00:08:40;15.80;99.90
19928;DHT22;10126;50.876;4.470;2023-09-19T00:10:44;15.80;99.90
19928;DHT22;10126;50.876;4.470;2023-09-19T00:12:45;15.70;99.90
19928;DHT22;10126;50.876;4.470;2023-09-19T00:14:46;15.80;99.90
19928;DHT22;10126;50.876;4.470;2023-09-19T00:16:46;15.70;99.90
19928;DHT22;10126;50.876;4.470;2023-09-19T00:18:47;15.70;99.90
19928;DHT22;10126;50.876;4.470;2023-09-19T00:20:49;15.70;99.90
19928;DHT22;10126;50.876;4.470;2023-09-19T00:22:51;15.80;99.90
19928;DHT22;10126;50.876;4.470;2023-09-19T00:24:53;15.80;99.90
19928;DHT22;10126;50.876;4.470;2023-09-19T00:26:54;15.70;99.90
19928;DHT22;10126;50.876;4.470;2023-09-19T00:28:56;15.70;99.90
19928;DHT22;10126;50.876;4.470;2023-09-19T00:30:57;15.70;99.90
19928;DHT22;10126;50.876;4.470;2023-09-19T00:33:01;15.70;99.90
19928;DHT22;10126;50.876;4.470;2023-09-19T00:35:06;15.80;99.90
19928;DHT22;10126;50.876;4.470;2023-09-19T00:37:09;15.80;99.90
19928;DHT22;10126;50.876;4.470;2023-09-19T00:39:11;15.90;99.90
19928;DHT22;10126;50.876;4.470;2023-09-19T00:41:12;15.80;99.90
19928;DHT22;10126;50.876;4.470;2023-09-19T00:43:13;15.80;99.90
19928;DHT22;10126;50.876;4.470;2023-09-19T00:45:15;15.70;99.90
19928;DHT22;10126;50.876;4.470;2023-09-19T00:47:16;15.70;99.90
19928;DHT22;10126;50.876;4.470;2023-09-19T00:49:17;15.80;99.90
19928;DHT22;10126;50.876;4.470;2023-09-19T00:51:18;15.80;99.90
19928;DHT22;10126;50.876;4.470;2023-09-19T00:53:23;15.80;99.90
19928;DHT22;10126;50.876;4.470;2023-09-19T00:55:26;15.80;99.90
19928;DHT22;10126;50.876;4.470;2023-09-19T00:57:30;15.80;99.90
19928;DHT22;10126;50.876;4.470;2023-09-19T00:59:33;15.80;99.90
19928;DHT22;10126;50.876;4.470;2023-09-19T01:01:33;15.70;99.90
19928;DHT22;10126;50.876;4.470;2023-09-19T01:03:36;15.70;99.90
19928;DHT22;10126;50.876;4.470;2023-09-19T01:05:36;15.60;99.90
19928;DHT22;10126;50.876;4.470;2023-09-19T01:07:37;15.60;99.90
19928;DHT22;10126;50.876;4.470;2023-09-19T01:09:41;15.60;99.90
19928;DHT22;10126;50.876;4.470;2023-09-19T01:11:43;15.60;99.90
19928;DHT22;10126;50.876;4.470;2023-09-19T01:14:50;15.60;99.90
19928;DHT22;10126;50.876;4.470;2023-09-19T01:16:42;15.70;99.90
19928;DHT22;10126;50.876;4.470;2023-09-19T01:19:05;15.60;99.90
19928;DHT22;10126;50.876;4.470;2023-09-19T01:21:28;15.60;99.90
19928;DHT22;10126;50.876;4.470;2023-09-19T01:23:47;15.60;99.90
19928;DHT22;10126;50.876;4.470;2023-09-19T01:31:20;15.60;99.90
19928;DHT22;10126;50.876;4.470;2023-09-19T01:33:21;15.50;99.90
19928;DHT22;10126;50.876;4.470;2023-09-19T01:35:23;15.60;99.90
19928;DHT22;10126;50.876;4.470;2023-09-19T01:37:24;15.60;99.90
19928;DHT22;10126;50.876;4.470;2023-09-19T01:39:26;15.60;99.90
19928;DHT22;10126;50.876;4.470;2023-09-19T01:43:53;15.60;99.90
19928;DHT22;10126;50.876;4.470;2023-09-19T01:46:04;15.40;99.90
19928;DHT22;10126;50.876;4.470;2023-09-19T01:50:57;15.30;99.90
19928;DHT22;10126;50.876;4.470;2023-09-19T01:53:04;15.30;99.90
19928;DHT22;10126;50.876;4.470;2023-09-19T01:55:09;15.40;99.90
19928;DHT22;10126;50.876;4.470;2023-09-19T01:57:16;15.40;99.90
19928;DHT22;10126;50.876;4.470;2023-09-19T01:59:23;15.30;99.90
19928;DHT22;10126;50.876;4.470;2023-09-19T02:01:26;15.40;99.90
19928;DHT22;10126;50.876;4.470;2023-09-19T02:03:28;15.40;99.90
19928;DHT22;10126;50.876;4.470;2023-09-19T02:05:29;15.40;99.90
19928;DHT22;10126;50.876;4.470;2023-09-19T02:07:30;15.50;99.90
19928;DHT22;10126;50.876;4.470;2023-09-19T02:09:34;15.50;99.90
19928;DHT22;10126;50.876;4.470;2023-09-19T02:11:35;15.40;99.90
19928;DHT22;10126;50.876;4.470;2023-09-19T02:13:37;15.50;99.90
19928;DHT22;10126;50.876;4.470;2023-09-19T02:15:38;15.40;99.90
19928;DHT22;10126;50.876;4.470;2023-09-19T02:17:38;15.50;99.90
19928;DHT22;10126;50.876;4.470;2023-09-19T02:19:40;15.60;99.90
19928;DHT22;10126;50.876;4.470;2023-09-19T02:21:41;15.50;99.90
19928;DHT22;10126;50.876;4.470;2023-09-19T02:23:42;15.60;99.90
19928;DHT22;10126;50.876;4.470;2023-09-19T02:25:42;15.60;99.90
19928;DHT22;10126;50.876;4.470;2023-09-19T02:27:44;15.70;99.90
19928;DHT22;10126;50.876;4.470;2023-09-19T02:29:44;15.80;99.90
19928;DHT22;10126;50.876;4.470;2023-09-19T02:31:45;15.90;99.90
19928;DHT22;10126;50.876;4.470;2023-09-19T02:33:46;15.90;99.90
19928;DHT22;10126;50.876;4.470;2023-09-19T02:35:47;16.00;99.90
19928;DHT22;10126;50.876;4.470;2023-09-19T02:37:48;16.00;99.90
19928;DHT22;10126;50.876;4.470;2023-09-19T02:39:49;15.90;99.90
19928;DHT22;10126;50.876;4.470;2023-09-19T02:41:49;16.10;99.90
19928;DHT22;10126;50.876;4.470;2023-09-19T02:43:50;16.00;99.90
19928;DHT22;10126;50.876;4.470;2023-09-19T02:45:51;16.10;99.90
19928;DHT22;10126;50.876;4.470;2023-09-19T02:47:53;16.10;99.90
19928;DHT22;10126;50.876;4.470;2023-09-19T02:49:55;16.10;99.90
19928;DHT22;10126;50.876;4.470;2023-09-19T02:51:55;15.90;99.90
19928;DHT22;10126;50.876;4.470;2023-09-19T02:54:01;15.90;99.90
19928;DHT22;10126;50.876;4.470;2023-09-19T02:56:03;16.00;99.90
19928;DHT22;10126;50.876;4.470;2023-09-19T02:58:05;16.00;99.90
19928;DHT22;10126;50.876;4.470;2023-09-19T03:00:08;15.90;99.90
19928;DHT22;10126;50.876;4.470;2023-09-19T03:02:10;15.90;99.90
19928;DHT22;10126;50.876;4.470;2023-09-19T03:04:11;15.80;99.90
19928;DHT22;10126;50.876;4.470;2023-09-19T03:06:11;15.80;99.90
19928;DHT22;10126;50.876;4.470;2023-09-19T03:08:14;15.80;99.90
19928;DHT22;10126;50.876;4.470;2023-09-19T03:10:21;15.80;99.90
19928;DHT22;10126;50.876;4.470;2023-09-19T03:12:22;15.80;99.90
19928;DHT22;10126;50.876;4.470;2023-09-19T03:14:22;15.80;99.90
19928;DHT22;10126;50.876;4.470;2023-09-19T03:16:23;15.70;99.90
19928;DHT22;10126;50.876;4.470;2023-09-19T03:18:25;15.60;99.90
19928;DHT22;10126;50.876;4.470;2023-09-19T03:20:27;15.70;99.90
19928;DHT22;10126;50.876;4.470;2023-09-19T03:22:28;15.60;99.90
19928;DHT22;10126;50.876;4.470;2023-09-19T03:24:28;15.70;99.90
19928;DHT22;10126;50.876;4.470;2023-09-19T03:26:29;15.80;99.90
19928;DHT22;10126;50.876;4.470;2023-09-19T03:28:33;15.80;99.90
19928;DHT22;10126;50.876;4.470;2023-09-19T03:30:34;15.70;99.90
19928;DHT22;10126;50.876;4.470;2023-09-19T03:32:35;15.80;99.90
19928;DHT22;10126;50.876;4.470;2023-09-19T03:34:37;15.80;99.90
19928;DHT22;10126;50.876;4.470;2023-09-19T03:36:41;15.60;99.90
19928;DHT22;10126;50.876;4.470;2023-09-19T03:38:41;15.70;99.90
19928;DHT22;10126;50.876;4.470;2023-09-19T03:40:43;15.70;99.90
19928;DHT22;10126;50.876;4.470;2023-09-19T03:42:44;15.70;99.90
19928;DHT22;10126;50.876;4.470;2023-09-19T03:44:45;15.80;99.90
19928;DHT22;10126;50.876;4.470;2023-09-19T03:46:45;15.70;99.90
19928;DHT22;10126;50.876;4.470;2023-09-19T03:48:46;15.70;99.90
19928;DHT22;10126;50.876;4.470;2023-09-19T03:50:47;15.60;99.90
19928;DHT22;10126;50.876;4.470;2023-09-19T03:52:47;15.60;99.90
19928;DHT22;10126;50.876;4.470;2023-09-19T03:54:48;15.50;99.90
19928;DHT22;10126;50.876;4.470;2023-09-19T03:56:49;15.50;99.90
19928;DHT22;10126;50.876;4.470;2023-09-19T03:58:50;15.50;99.90
19928;DHT22;10126;50.876;4.470;2023-09-19T04:00:55;15.40;99.90
19928;DHT22;10126;50.876;4.470;2023-09-19T04:02:56;15.40;99.90
19928;DHT22;10126;50.876;4.470;2023-09-19T04:04:57;15.20;99.90
19928;DHT22;10126;50.876;4.470;2023-09-19T04:06:57;15.10;99.90
19928;DHT22;10126;50.876;4.470;2023-09-19T04:08:58;15.20;99.90
19928;DHT22;10126;50.876;4.470;2023-09-19T04:10:59;15.20;99.90
19928;DHT22;10126;50.876;4.470;2023-09-19T04:12:59;15.10;99.90
19928;DHT22;10126;50.876;4.470;2023-09-19T04:15:00;15.00;99.90
19928;DHT22;10126;50.876;4.470;2023-09-19T04:17:01;15.00;99.90
19928;DHT22;10126;50.876;4.470;2023-09-19T04:19:02;15.00;99.90
19928;DHT22;10126;50.876;4.470;2023-09-19T04:21:04;15.00;99.90
19928;DHT22;10126;50.876;4.470;2023-09-19T04:23:05;15.00;99.90
19928;DHT22;10126;50.876;4.470;2023-09-19T04:25:07;14.90;99.90
19928;DHT22;10126;50.876;4.470;2023-09-19T04:27:07;15.00;99.90
19928;DHT22;10126;50.876;4.470;2023-09-19T04:29:10;15.10;99.90
19928;DHT22;10126;50.876;4.470;2023-09-19T04:31:11;15.20;99.90
19928;DHT22;10126;50.876;4.470;2023-09-19T04:33:12;15.20;99.90
19928;DHT22;10126;50.876;4.470;2023-09-19T04:35:14;15.10;99.90
19928;DHT22;10126;50.876;4.470;2023-09-19T04:37:15;15.10;99.90
19928;DHT22;10126;50.876;4.470;2023-09-19T04:39:16;14.90;99.90
19928;DHT22;10126;50.876;4.470;2023-09-19T04:41:18;14.90;99.90
19928;DHT22;10126;50.876;4.470;2023-09-19T04:43:18;14.90;99.90
19928;DHT22;10126;50.876;4.470;2023-09-19T04:45:19;15.00;99.90
19928;DHT22;10126;50.876;4.470;2023-09-19T04:47:20;15.00;99.90
19928;DHT22;10126;50.876;4.470;2023-09-19T04:49:22;14.90;99.90
19928;DHT22;10126;50.876;4.470;2023-09-19T04:51:23;14.80;99.90
19928;DHT22;10126;50.876;4.470;2023-09-19T04:53:24;14.90;99.90
19928;DHT22;10126;50.876;4.470;2023-09-19T04:55:27;14.80;99.90
19928;DHT22;10126;50.876;4.470;2023-09-19T04:57:28;15.00;99.90
19928;DHT22;10126;50.876;4.470;2023-09-19T04:59:37;14.90;99.90
19928;DHT22;10126;50.876;4.470;2023-09-19T05:01:38;14.90;99.90
19928;DHT22;10126;50.876;4.470;2023-09-19T05:03:38;14.90;99.90
19928;DHT22;10126;50.876;4.470;2023-09-19T05:05:39;14.90;99.90
19928;DHT22;10126;50.876;4.470;2023-09-19T05:07:42;14.90;99.90
19928;DHT22;10126;50.876;4.470;2023-09-19T05:09:42;14.80;99.90
19928;DHT22;10126;50.876;4.470;2023-09-19T05:11:43;14.80;99.90
19928;DHT22;10126;50.876;4.470;2023-09-19T05:13:44;14.80;99.90
19928;DHT22;10126;50.876;4.470;2023-09-19T05:15:44;14.80;99.90
19928;DHT22;10126;50.876;4.470;2023-09-19T05:17:49;14.90;99.90
19928;DHT22;10126;50.876;4.470;2023-09-19T05:19:50;14.80;99.90
19928;DHT22;10126;50.876;4.470;2023-09-19T05:21:51;14.80;99.90
19928;DHT22;10126;50.876;4.470;2023-09-19T05:23:52;14.80;99.90
19928;DHT22;10126;50.876;4.470;2023-09-19T05:25:52;14.80;99.90
19928;DHT22;10126;50.876;4.470;2023-09-19T05:27:53;14.90;99.90
19928;DHT22;10126;50.876;4.470;2023-09-19T05:29:54;14.80;99.90
19928;DHT22;10126;50.876;4.470;2023-09-19T05:31:56;15.00;99.90
19928;DHT22;10126;50.876;4.470;2023-09-19T05:33:57;15.00;99.90
19928;DHT22;10126;50.876;4.470;2023-09-19T05:35:58;15.00;99.90
19928;DHT22;10126;50.876;4.470;2023-09-19T05:37:59;15.00;99.90
19928;DHT22;10126;50.876;4.470;2023-09-19T05:40:00;15.00;99.90
19928;DHT22;10126;50.876;4.470;2023-09-19T05:42:00;14.90;99.90
19928;DHT22;10126;50.876;4.470;2023-09-19T05:44:01;15.00;99.90
19928;DHT22;10126;50.876;4.470;2023-09-19T05:46:03;15.00;99.90
19928;DHT22;10126;50.876;4.470;2023-09-19T05:48:11;15.00;99.90
19928;DHT22;10126;50.876;4.470;2023-09-19T05:50:13;15.10;99.90
19928;DHT22;10126;50.876;4.470;2023-09-19T05:52:15;15.10;99.90
19928;DHT22;10126;50.876;4.470;2023-09-19T05:54:18;15.20;99.90
19928;DHT22;10126;50.876;4.470;2023-09-19T05:56:20;15.20;99.90
19928;DHT22;10126;50.876;4.470;2023-09-19T05:58:21;15.20;99.90
19928;DHT22;10126;50.876;4.470;2023-09-19T06:00:22;15.20;99.90
19928;DHT22;10126;50.876;4.470;2023-09-19T06:02:23;15.30;99.90
19928;DHT22;10126;50.876;4.470;2023-09-19T06:04:24;15.40;99.90
19928;DHT22;10126;50.876;4.470;2023-09-19T06:06:26;15.40;99.90
19928;DHT22;10126;50.876;4.470;2023-09-19T06:08:27;15.40;99.90
19928;DHT22;10126;50.876;4.470;2023-09-19T06:10:28;15.40;99.90
19928;DHT22;10126;50.876;4.470;2023-09-19T06:12:29;15.60;99.90
19928;DHT22;10126;50.876;4.470;2023-09-19T06:14:30;15.50;99.90
19928;DHT22;10126;50.876;4.470;2023-09-19T06:16:31;15.60;99.90
19928;DHT22;10126;50.876;4.470;2023-09-19T06:18:34;15.70;99.90
19928;DHT22;10126;50.876;4.470;2023-09-19T06:20:35;15.90;99.90
19928;DHT22;10126;50.876;4.470;2023-09-19T06:22:36;16.00;99.90
19928;DHT22;10126;50.876;4.470;2023-09-19T06:24:38;16.10;99.90
19928;DHT22;10126;50.876;4.470;2023-09-19T06:26:38;16.10;99.90
19928;DHT22;10126;50.876;4.470;2023-09-19T06:28:39;16.40;99.90
19928;DHT22;10126;50.876;4.470;2023-09-19T06:30:40;16.50;99.90
19928;DHT22;10126;50.876;4.470;2023-09-19T06:32:41;16.60;99.90
19928;DHT22;10126;50.876;4.470;2023-09-19T06:34:44;16.60;99.90
19928;DHT22;10126;50.876;4.470;2023-09-19T06:36:46;16.70;99.90
19928;DHT22;10126;50.876;4.470;2023-09-19T06:38:47;16.70;99.90
19928;DHT22;10126;50.876;4.470;2023-09-19T06:40:49;17.20;99.90
19928;DHT22;10126;50.876;4.470;2023-09-19T06:42:53;17.40;99.90
19928;DHT22;10126;50.876;4.470;2023-09-19T06:44:54;17.50;99.90
19928;DHT22;10126;50.876;4.470;2023-09-19T06:46:55;17.70;99.90
19928;DHT22;10126;50.876;4.470;2023-09-19T06:48:55;17.70;99.90
19928;DHT22;10126;50.876;4.470;2023-09-19T06:50:56;17.70;99.90
19928;DHT22;10126;50.876;4.470;2023-09-19T06:52:58;17.70;99.90
19928;DHT22;10126;50.876;4.470;2023-09-19T06:54:59;17.50;99.90
19928;DHT22;10126;50.876;4.470;2023-09-19T06:57:00;17.50;99.90
19928;DHT22;10126;50.876;4.470;2023-09-19T06:59:01;17.50;99.90
19928;DHT22;10126;50.876;4.470;2023-09-19T07:01:02;17.80;99.90
19928;DHT22;10126;50.876;4.470;2023-09-19T07:03:06;17.90;99.90
19928;DHT22;10126;50.876;4.470;2023-09-19T07:05:08;17.90;99.90
19928;DHT22;10126;50.876;4.470;2023-09-19T07:07:09;17.80;99.90
19928;DHT22;10126;50.876;4.470;2023-09-19T07:09:10;17.90;99.90
19928;DHT22;10126;50.876;4.470;2023-09-19T07:11:11;18.10;99.90
19928;DHT22;10126;50.876;4.470;2023-09-19T07:13:12;18.20;99.90
19928;DHT22;10126;50.876;4.470;2023-09-19T07:15:13;18.40;99.90
19928;DHT22;10126;50.876;4.470;2023-09-19T07:17:14;18.60;99.90
19928;DHT22;10126;50.876;4.470;2023-09-19T07:19:19;18.80;99.90
19928;DHT22;10126;50.876;4.470;2023-09-19T07:21:20;19.20;99.90
19928;DHT22;10126;50.876;4.470;2023-09-19T07:23:22;19.40;99.90
19928;DHT22;10126;50.876;4.470;2023-09-19T07:25:23;19.70;99.90
19928;DHT22;10126;50.876;4.470;2023-09-19T07:27:24;19.90;99.90
19928;DHT22;10126;50.876;4.470;2023-09-19T07:29:25;20.40;99.90
19928;DHT22;10126;50.876;4.470;2023-09-19T07:31:26;20.90;99.90
19928;DHT22;10126;50.876;4.470;2023-09-19T07:33:27;21.30;99.90
19928;DHT22;10126;50.876;4.470;2023-09-19T07:35:29;21.40;99.90
19928;DHT22;10126;50.876;4.470;2023-09-19T07:37:30;21.20;99.90
19928;DHT22;10126;50.876;4.470;2023-09-19T07:39:33;21.50;99.90
19928;DHT22;10126;50.876;4.470;2023-09-19T07:41:34;21.80;99.90
19928;DHT22;10126;50.876;4.470;2023-09-19T07:43:35;21.90;99.90
19928;DHT22;10126;50.876;4.470;2023-09-19T07:45:37;21.70;99.90
19928;DHT22;10126;50.876;4.470;2023-09-19T07:47:38;21.40;99.90
19928;DHT22;10126;50.876;4.470;2023-09-19T07:49:39;20.90;99.90
19928;DHT22;10126;50.876;4.470;2023-09-19T07:51:40;20.60;99.90
19928;DHT22;10126;50.876;4.470;2023-09-19T07:53:41;20.40;99.90
19928;DHT22;10126;50.876;4.470;2023-09-19T07:55:42;20.60;99.90
19928;DHT22;10126;50.876;4.470;2023-09-19T07:57:44;20.60;99.90
19928;DHT22;10126;50.876;4.470;2023-09-19T07:59:44;20.60;99.90
19928;DHT22;10126;50.876;4.470;2023-09-19T08:01:46;20.30;99.90
19928;DHT22;10126;50.876;4.470;2023-09-19T08:03:49;20.20;99.90
19928;DHT22;10126;50.876;4.470;2023-09-19T08:05:49;19.80;99.90
19928;DHT22;10126;50.876;4.470;2023-09-19T08:07:50;19.90;99.90
19928;DHT22;10126;50.876;4.470;2023-09-19T08:09:51;20.00;99.90
19928;DHT22;10126;50.876;4.470;2023-09-19T08:11:51;19.80;99.90
19928;DHT22;10126;50.876;4.470;2023-09-19T08:13:52;19.90;99.90
19928;DHT22;10126;50.876;4.470;2023-09-19T08:15:52;19.80;99.90
19928;DHT22;10126;50.876;4.470;2023-09-19T08:17:53;19.90;99.90
19928;DHT22;10126;50.876;4.470;2023-09-19T08:19:54;20.00;99.90
19928;DHT22;10126;50.876;4.470;2023-09-19T08:21:58;20.10;99.90
19928;DHT22;10126;50.876;4.470;2023-09-19T08:24:02;20.30;99.90
19928;DHT22;10126;50.876;4.470;2023-09-19T08:26:06;20.40;99.90
19928;DHT22;10126;50.876;4.470;2023-09-19T08:28:08;20.50;99.90
19928;DHT22;10126;50.876;4.470;2023-09-19T08:30:09;20.40;99.90
19928;DHT22;10126;50.876;4.470;2023-09-19T08:32:11;20.20;99.90
19928;DHT22;10126;50.876;4.470;2023-09-19T08:34:11;20.10;99.90
19928;DHT22;10126;50.876;4.470;2023-09-19T08:36:12;20.40;99.90
19928;DHT22;10126;50.876;4.470;2023-09-19T08:38:14;20.40;99.90
19928;DHT22;10126;50.876;4.470;2023-09-19T08:40:16;20.60;99.90
19928;DHT22;10126;50.876;4.470;2023-09-19T08:42:16;20.80;99.90
19928;DHT22;10126;50.876;4.470;2023-09-19T08:44:18;20.90;99.90
19928;DHT22;10126;50.876;4.470;2023-09-19T08:46:20;20.60;99.90
19928;DHT22;10126;50.876;4.470;2023-09-19T08:48:29;20.40;99.90
19928;DHT22;10126;50.876;4.470;2023-09-19T08:50:30;20.50;99.90
19928;DHT22;10126;50.876;4.470;2023-09-19T08:52:43;20.70;99.90
19928;DHT22;10126;50.876;4.470;2023-09-19T08:54:45;20.80;99.90
19928;DHT22;10126;50.876;4.470;2023-09-19T08:56:48;21.00;99.90
19928;DHT22;10126;50.876;4.470;2023-09-19T08:59:02;21.00;99.90
19928;DHT22;10126;50.876;4.470;2023-09-19T09:01:06;20.80;99.90
19928;DHT22;10126;50.876;4.470;2023-09-19T09:03:20;21.00;99.90
19928;DHT22;10126;50.876;4.470;2023-09-19T09:05:23;21.20;99.90
19928;DHT22;10126;50.876;4.470;2023-09-19T09:07:24;21.00;99.90
19928;DHT22;10126;50.876;4.470;2023-09-19T09:09:25;21.10;99.90
19928;DHT22;10126;50.876;4.470;2023-09-19T09:11:26;21.40;99.90
19928;DHT22;10126;50.876;4.470;2023-09-19T09:13:28;21.10;99.90
19928;DHT22;10126;50.876;4.470;2023-09-19T09:15:29;21.40;99.90
19928;DHT22;10126;50.876;4.470;2023-09-19T09:17:31;21.60;99.90
19928;DHT22;10126;50.876;4.470;2023-09-19T09:19:32;21.80;99.90
19928;DHT22;10126;50.876;4.470;2023-09-19T09:21:32;21.60;99.90
19928;DHT22;10126;50.876;4.470;2023-09-19T09:23:37;21.70;99.90
19928;DHT22;10126;50.876;4.470;2023-09-19T09:25:54;21.60;99.90
19928;DHT22;10126;50.876;4.470;2023-09-19T09:28:01;21.60;99.90
19928;DHT22;10126;50.876;4.470;2023-09-19T09:30:02;21.80;99.90
19928;DHT22;10126;50.876;4.470;2023-09-19T09:32:20;21.90;99.90
19928;DHT22;10126;50.876;4.470;2023-09-19T09:34:21;21.60;99.90
19928;DHT22;10126;50.876;4.470;2023-09-19T09:36:38;21.50;99.90
19928;DHT22;10126;50.876;4.470;2023-09-19T09:38:47;21.40;99.90
19928;DHT22;10126;50.876;4.470;2023-09-19T09:40:56;21.20;99.90
19928;DHT22;10126;50.876;4.470;2023-09-19T09:43:28;21.20;99.90
19928;DHT22;10126;50.876;4.470;2023-09-19T09:45:29;21.20;99.90
19928;DHT22;10126;50.876;4.470;2023-09-19T09:47:47;21.40;99.90
19928;DHT22;10126;50.876;4.470;2023-09-19T09:49:55;21.30;99.90
19928;DHT22;10126;50.876;4.470;2023-09-19T09:52:07;20.90;99.90
19928;DHT22;10126;50.876;4.470;2023-09-19T09:54:18;20.70;99.90
19928;DHT22;10126;50.876;4.470;2023-09-19T09:56:21;20.50;99.90
19928;DHT22;10126;50.876;4.470;2023-09-19T09:58:23;20.60;99.90
19928;DHT22;10126;50.876;4.470;2023-09-19T10:00:29;20.50;99.90
19928;DHT22;10126;50.876;4.470;2023-09-19T10:02:43;20.50;99.90
19928;DHT22;10126;50.876;4.470;2023-09-19T10:04:46;20.40;99.90
19928;DHT22;10126;50.876;4.470;2023-09-19T10:06:59;20.10;99.90
19928;DHT22;10126;50.876;4.470;2023-09-19T10:09:08;19.90;99.90
19928;DHT22;10126;50.876;4.470;2023-09-19T10:11:18;19.80;99.90
19928;DHT22;10126;50.876;4.470;2023-09-19T10:13:20;19.80;99.90
19928;DHT22;10126;50.876;4.470;2023-09-19T10:15:27;19.90;99.90
19928;DHT22;10126;50.876;4.470;2023-09-19T10:17:36;20.00;99.90
19928;DHT22;10126;50.876;4.470;2023-09-19T10:19:42;20.20;99.90
19928;DHT22;10126;50.876;4.470;2023-09-19T10:21:47;20.30;99.90
19928;DHT22;10126;50.876;4.470;2023-09-19T10:23:50;20.40;99.90
19928;DHT22;10126;50.876;4.470;2023-09-19T10:25:53;20.50;99.90
19928;DHT22;10126;50.876;4.470;2023-09-19T10:27:54;20.60;99.90
19928;DHT22;10126;50.876;4.470;2023-09-19T10:29:57;20.60;99.90
19928;DHT22;10126;50.876;4.470;2023-09-19T10:32:01;20.80;99.90
19928;DHT22;10126;50.876;4.470;2023-09-19T10:34:04;20.90;99.90
19928;DHT22;10126;50.876;4.470;2023-09-19T10:36:07;20.80;99.90
19928;DHT22;10126;50.876;4.470;2023-09-19T10:38:12;20.90;99.90
19928;DHT22;10126;50.876;4.470;2023-09-19T10:40:14;20.90;99.90
19928;DHT22;10126;50.876;4.470;2023-09-19T10:42:19;20.90;99.90
19928;DHT22;10126;50.876;4.470;2023-09-19T10:44:23;20.90;99.90
19928;DHT22;10126;50.876;4.470;2023-09-19T10:46:25;20.80;99.90
19928;DHT22;10126;50.876;4.470;2023-09-19T10:48:26;20.80;99.90
19928;DHT22;10126;50.876;4.470;2023-09-19T10:50:35;20.80;99.90
19928;DHT22;10126;50.876;4.470;2023-09-19T10:52:40;20.80;99.90
19928;DHT22;10126;50.876;4.470;2023-09-19T10:54:46;20.80;99.90
19928;DHT22;10126;50.876;4.470;2023-09-19T10:56:52;20.90;99.90
19928;DHT22;10126;50.876;4.470;2023-09-19T10:59:13;20.80;99.90
19928;DHT22;10126;50.876;4.470;2023-09-19T11:01:14;20.80;99.90
19928;DHT22;10126;50.876;4.470;2023-09-19T11:03:16;20.80;99.90
19928;DHT22;10126;50.876;4.470;2023-09-19T11:05:22;20.70;99.90
19928;DHT22;10126;50.876;4.470;2023-09-19T11:07:24;20.80;99.90
19928;DHT22;10126;50.876;4.470;2023-09-19T11:11:50;20.70;99.90
19928;DHT22;10126;50.876;4.470;2023-09-19T11:14:13;20.70;99.90
19928;DHT22;10126;50.876;4.470;2023-09-19T11:16:18;20.70;99.90
19928;DHT22;10126;50.876;4.470;2023-09-19T11:20:42;20.80;99.90
19928;DHT22;10126;50.876;4.470;2023-09-19T11:24:50;21.20;99.90
19928;DHT22;10126;50.876;4.470;2023-09-19T11:27:12;21.40;99.90
19928;DHT22;10126;50.876;4.470;2023-09-19T11:29:27;21.50;99.90
19928;DHT22;10126;50.876;4.470;2023-09-19T11:31:43;21.60;99.90
19928;DHT22;10126;50.876;4.470;2023-09-19T11:33:46;21.70;99.90
19928;DHT22;10126;50.876;4.470;2023-09-19T11:38:06;21.70;99.90
19928;DHT22;10126;50.876;4.470;2023-09-19T11:40:07;21.70;99.90
19928;DHT22;10126;50.876;4.470;2023-09-19T11:42:51;21.50;99.90
19928;DHT22;10126;50.876;4.470;2023-09-19T11:44:56;21.60;99.90
19928;DHT22;10126;50.876;4.470;2023-09-19T11:46:56;21.80;99.90
19928;DHT22;10126;50.876;4.470;2023-09-19T11:49:09;22.00;99.90
19928;DHT22;10126;50.876;4.470;2023-09-19T11:51:21;22.10;99.90
19928;DHT22;10126;50.876;4.470;2023-09-19T11:53:31;22.40;99.90
19928;DHT22;10126;50.876;4.470;2023-09-19T11:55:36;22.50;99.90
19928;DHT22;10126;50.876;4.470;2023-09-19T11:57:39;22.60;99.90
19928;DHT22;10126;50.876;4.470;2023-09-19T11:59:42;22.50;99.90
19928;DHT22;10126;50.876;4.470;2023-09-19T12:01:52;22.50;99.90
19928;DHT22;10126;50.876;4.470;2023-09-19T12:04:00;22.20;99.90
19928;DHT22;10126;50.876;4.470;2023-09-19T12:06:11;22.00;99.90
19928;DHT22;10126;50.876;4.470;2023-09-19T12:08:15;21.90;99.90
19928;DHT22;10126;50.876;4.470;2023-09-19T12:10:16;21.90;99.90
19928;DHT22;10126;50.876;4.470;2023-09-19T12:12:28;21.90;99.90
19928;DHT22;10126;50.876;4.470;2023-09-19T12:14:30;21.80;99.90
19928;DHT22;10126;50.876;4.470;2023-09-19T12:16:32;21.70;99.90
19928;DHT22;10126;50.876;4.470;2023-09-19T12:18:33;21.50;99.90
19928;DHT22;10126;50.876;4.470;2023-09-19T12:20:45;21.50;99.90
19928;DHT22;10126;50.876;4.470;2023-09-19T12:22:47;21.40;99.90
19928;DHT22;10126;50.876;4.470;2023-09-19T12:24:50;21.60;99.90
19928;DHT22;10126;50.876;4.470;2023-09-19T12:26:51;21.60;99.90
19928;DHT22;10126;50.876;4.470;2023-09-19T12:28:53;21.60;99.90
19928;DHT22;10126;50.876;4.470;2023-09-19T12:30:55;21.50;99.90
19928;DHT22;10126;50.876;4.470;2023-09-19T12:32:55;21.60;99.90
19928;DHT22;10126;50.876;4.470;2023-09-19T12:34:59;21.70;99.90
19928;DHT22;10126;50.876;4.470;2023-09-19T12:37:09;21.70;99.90
19928;DHT22;10126;50.876;4.470;2023-09-19T12:39:23;21.80;99.90
19928;DHT22;10126;50.876;4.470;2023-09-19T12:41:26;21.60;99.90
19928;DHT22;10126;50.876;4.470;2023-09-19T12:43:29;21.70;99.90
19928;DHT22;10126;50.876;4.470;2023-09-19T12:45:33;21.60;99.90
19928;DHT22;10126;50.876;4.470;2023-09-19T12:47:35;21.70;99.90
19928;DHT22;10126;50.876;4.470;2023-09-19T12:49:36;21.70;99.90
19928;DHT22;10126;50.876;4.470;2023-09-19T12:51:37;21.90;99.90
19928;DHT22;10126;50.876;4.470;2023-09-19T12:55:43;21.90;99.90
19928;DHT22;10126;50.876;4.470;2023-09-19T12:57:50;22.10;99.90
19928;DHT22;10126;50.876;4.470;2023-09-19T12:59:55;22.20;99.90
19928;DHT22;10126;50.876;4.470;2023-09-19T13:02:04;22.00;99.90
19928;DHT22;10126;50.876;4.470;2023-09-19T13:04:15;21.80;99.90
19928;DHT22;10126;50.876;4.470;2023-09-19T13:06:35;22.00;99.90
19928;DHT22;10126;50.876;4.470;2023-09-19T13:08:40;22.30;99.90
19928;DHT22;10126;50.876;4.470;2023-09-19T13:13:22;22.70;99.90
19928;DHT22;10126;50.876;4.470;2023-09-19T13:15:28;22.80;99.90
19928;DHT22;10126;50.876;4.470;2023-09-19T13:17:45;22.60;99.90
19928;DHT22;10126;50.876;4.470;2023-09-19T13:21:54;22.20;99.90
19928;DHT22;10126;50.876;4.470;2023-09-19T13:24:20;22.10;99.90
19928;DHT22;10126;50.876;4.470;2023-09-19T13:26:21;22.00;99.90